Time;durP1;ratioP1;P1;durP2;ratioP2;P2;SDS_P1;SDS_P2;PMS_P1;PMS_P2;Temp;Humidity;BMP_temperature;BMP_pressure;BME280_temperature;BME280_humidity;BME280_pressure;Samples;Min_cycle;Max_cycle;Signal;HPM_P1;HPM_P2
2022/01/19 00:00:09;;;;;;;42.75;18.67;;;;;;;-145.00;100.00;60578.66;5094392;28;20066;-53
2022/01/19 00:02:38;;;;;;;36.50;17.67;;;;;;;-145.00;100.00;60578.66;5094415;28;20062;-53
2022/01/19 00:05:09;;;;;;;34.45;16.67;;;;;;;-145.00;100.00;60578.66;5095090;28;20102;-53
2022/01/19 00:07:37;;;;;;;29.30;12.15;;;;;;;-145.00;100.00;60578.66;5094205;28;20066;-53
2022/01/19 00:10:10;;;;;;;29.83;15.90;;;;;;;-145.00;100.00;60578.66;5094640;28;20056;-53
2022/01/19 00:12:41;;;;;;;29.63;15.27;;;;;;;-145.00;100.00;60578.66;5094831;28;20060;-53
2022/01/19 00:15:10;;;;;;;35.95;15.52;;;;;;;-145.00;100.00;60578.66;5095729;28;20091;-53
2022/01/19 00:17:39;;;;;;;32.25;14.52;;;;;;;-145.00;100.00;60578.66;5094867;28;20052;-53
2022/01/19 00:20:10;;;;;;;31.13;15.00;;;;;;;-145.00;100.00;60578.66;5094356;28;20056;-53
2022/01/19 00:22:38;;;;;;;33.30;15.32;;;;;;;-145.00;100.00;60578.66;5095409;28;20395;-53
2022/01/19 00:25:08;;;;;;;34.80;15.35;;;;;;;-145.00;100.00;60578.66;5094784;28;20414;-53
2022/01/19 00:27:36;;;;;;;34.38;15.82;;;;;;;-145.00;100.00;60578.66;5094113;28;20096;-53
2022/01/19 00:30:05;;;;;;;29.88;15.77;;;;;;;-145.00;100.00;60578.66;5094135;28;20414;-53
2022/01/19 00:32:34;;;;;;;38.55;16.77;;;;;;;-145.00;100.00;60578.66;5094125;28;20052;-53
2022/01/19 00:35:02;;;;;;;40.47;17.55;;;;;;;-145.00;100.00;60578.66;5095454;28;20094;-53
2022/01/19 00:37:32;;;;;;;32.15;16.27;;;;;;;-145.00;100.00;60578.66;5094963;28;20052;-53
2022/01/19 00:40:00;;;;;;;30.60;15.43;;;;;;;-145.00;100.00;60578.66;5094265;28;20495;-53
2022/01/19 00:42:28;;;;;;;36.88;17.17;;;;;;;-145.00;100.00;60578.66;5094186;28;20067;-53
2022/01/19 00:44:56;;;;;;;36.65;16.90;;;;;;;-145.00;100.00;60578.66;5095127;28;20071;-53
2022/01/19 00:47:25;;;;;;;37.20;16.67;;;;;;;-145.00;100.00;60578.66;5098515;28;20469;-53
2022/01/19 00:49:54;;;;;;;35.30;15.85;;;;;;;-145.00;100.00;60578.66;5099248;28;20056;-53
2022/01/19 00:52:22;;;;;;;33.90;15.70;;;;;;;-145.00;100.00;60578.66;5098066;28;20143;-53
2022/01/19 00:54:52;;;;;;;32.80;14.55;;;;;;;-145.00;100.00;60578.66;5098658;28;20052;-53
2022/01/19 00:57:20;;;;;;;31.00;14.88;;;;;;;-145.00;100.00;60578.66;5098218;28;20060;-53
2022/01/19 00:59:48;;;;;;;29.67;15.20;;;;;;;-145.00;100.00;60578.66;5097816;28;20056;-53
2022/01/19 01:02:17;;;;;;;34.17;16.10;;;;;;;-145.00;100.00;60578.66;5098203;28;20063;-53
2022/01/19 01:04:45;;;;;;;31.38;15.90;;;;;;;-145.00;100.00;60578.66;5098475;28;20055;-53
2022/01/19 01:07:13;;;;;;;32.05;15.25;;;;;;;-145.00;100.00;60578.66;5098080;28;20056;-53
2022/01/19 01:09:41;;;;;;;30.65;15.18;;;;;;;-145.00;100.00;60578.66;5098036;28;20059;-53
2022/01/19 01:12:13;;;;;;;31.05;14.00;;;;;;;-145.00;100.00;60578.66;5098380;28;20064;-53
2022/01/19 01:20:11;;;;;;;28.27;14.25;;;;;;;-145.00;100.00;60578.66;5053739;28;20407;-53
2022/01/19 01:22:40;;;;;;;25.73;14.10;;;;;;;-145.00;100.00;60578.66;5097804;28;20411;-53
2022/01/19 01:25:09;;;;;;;29.45;14.00;;;;;;;-145.00;100.00;60578.66;5097250;28;20062;-53
2022/01/19 01:27:38;;;;;;;29.05;14.27;;;;;;;-145.00;100.00;60578.66;5097432;28;20056;-53
2022/01/19 01:30:08;;;;;;;28.38;13.90;;;;;;;-145.00;100.00;60578.66;5098034;28;20097;-53
2022/01/19 01:32:36;;;;;;;26.85;13.30;;;;;;;-145.00;100.00;60578.66;5097325;28;20067;-53
2022/01/19 01:35:06;;;;;;;28.45;14.70;;;;;;;-145.00;100.00;60578.66;5097326;28;20059;-53
2022/01/19 01:37:34;;;;;;;25.55;12.75;;;;;;;-145.00;100.00;60578.66;5098375;28;20487;-53
2022/01/19 01:40:04;;;;;;;29.90;14.07;;;;;;;-145.00;100.00;60578.66;5097367;28;20052;-53
2022/01/19 01:42:33;;;;;;;28.55;14.65;;;;;;;-145.00;100.00;60578.66;5097511;28;20060;-53
2022/01/19 01:45:04;;;;;;;30.55;14.02;;;;;;;-145.00;100.00;60578.66;5098504;28;20056;-53
2022/01/19 01:47:39;;;;;;;27.33;13.55;;;;;;;-145.00;100.00;60578.66;5097586;28;20063;-53
2022/01/19 01:55:39;;;;;;;32.63;13.85;;;;;;;-145.00;100.00;60578.66;5097833;28;20063;-53
2022/01/19 01:58:08;;;;;;;31.45;14.90;;;;;;;-145.00;100.00;60578.66;5096785;28;20515;-53
2022/01/19 02:00:37;;;;;;;27.92;13.63;;;;;;;-145.00;100.00;60578.66;5097080;28;20056;-53
2022/01/19 02:03:06;;;;;;;26.67;13.45;;;;;;;-145.00;100.00;60578.66;5097061;28;20062;-53
2022/01/19 02:05:38;;;;;;;24.05;12.77;;;;;;;-145.00;100.00;60578.66;5096603;28;20064;-53
2022/01/19 02:08:15;;;;;;;28.80;13.85;;;;;;;-145.00;100.00;60578.66;5096444;28;20051;-53
2022/01/19 02:10:59;;;;;;;25.92;13.27;;;;;;;-145.00;100.00;60578.66;5097799;28;20391;-53
2022/01/19 02:16:40;;;;;;;27.17;13.70;;;;;;;-145.00;100.00;60578.66;4994588;28;20171;-53
2022/01/19 02:22:00;;;;;;;28.77;13.98;;;;;;;-145.00;100.00;60578.66;5060976;28;20067;-53
2022/01/19 02:24:31;;;;;;;27.70;14.10;;;;;;;-145.00;100.00;60578.66;5096892;28;20056;-53
2022/01/19 02:27:07;;;;;;;25.45;13.30;;;;;;;-145.00;100.00;60578.66;5096391;28;20063;-53
2022/01/19 02:40:59;;;;;;;25.77;13.40;;;;;;;-145.00;100.00;60578.66;5045594;28;20066;-53
2022/01/19 02:43:29;;;;;;;26.15;13.38;;;;;;;-145.00;100.00;60578.66;5096791;28;20052;-53
2022/01/19 02:51:29;;;;;;;32.33;14.30;;;;;;;-145.00;100.00;60578.66;5096113;28;20564;-53
2022/01/19 02:53:58;;;;;;;25.40;13.55;;;;;;;-145.00;100.00;60578.66;5096287;28;20056;-53
2022/01/19 02:56:31;;;;;;;25.45;12.95;;;;;;;-145.00;100.00;60578.66;5096315;28;20083;-53
2022/01/19 02:59:11;;;;;;;27.33;13.30;;;;;;;-145.00;100.00;60578.66;5096114;28;20052;-53
2022/01/19 03:09:58;;;;;;;28.80;15.15;;;;;;;-145.00;100.00;60578.66;5095499;28;20063;-53
2022/01/19 03:12:26;;;;;;;32.15;13.95;;;;;;;-145.00;100.00;60578.66;5095386;28;20074;-53
2022/01/19 03:14:54;;;;;;;30.92;14.05;;;;;;;-145.00;100.00;60578.66;5095399;28;20062;-53
2022/01/19 03:17:22;;;;;;;30.10;13.77;;;;;;;-145.00;100.00;60578.66;5095593;28;20052;-53
2022/01/19 03:19:51;;;;;;;25.88;12.90;;;;;;;-145.00;100.00;60578.66;5095525;28;20070;-53
2022/01/19 03:22:25;;;;;;;24.70;12.55;;;;;;;-145.00;100.00;60578.66;5095122;28;20052;-53
2022/01/19 03:24:53;;;;;;;25.95;13.40;;;;;;;-145.00;100.00;60578.66;5095575;28;20060;-53
2022/01/19 03:27:23;;;;;;;25.05;12.60;;;;;;;-145.00;100.00;60578.66;5095107;28;20056;-53
2022/01/19 03:29:51;;;;;;;27.10;13.73;;;;;;;-145.00;100.00;60578.66;5095626;28;20056;-53
2022/01/19 03:32:20;;;;;;;26.73;13.73;;;;;;;-145.00;100.00;60578.66;5095050;28;20056;-53
2022/01/19 03:34:48;;;;;;;30.35;14.73;;;;;;;-145.00;100.00;60578.66;5094748;28;20063;-53
2022/01/19 03:37:16;;;;;;;27.88;13.48;;;;;;;-145.00;100.00;60578.66;5094884;28;20058;-53
2022/01/19 03:39:44;;;;;;;25.88;13.45;;;;;;;-145.00;100.00;60578.66;5095140;28;20499;-53
2022/01/19 03:42:13;;;;;;;23.15;12.23;;;;;;;-145.00;100.00;60578.66;5094946;28;20067;-53
2022/01/19 03:44:43;;;;;;;35.55;13.68;;;;;;;-145.00;100.00;60578.66;5095296;28;20052;-53
2022/01/19 03:47:11;;;;;;;33.45;14.23;;;;;;;-145.00;100.00;60578.66;5094509;28;20056;-53
2022/01/19 03:49:39;;;;;;;26.90;14.02;;;;;;;-145.00;100.00;60578.66;5095820;28;20056;-53
2022/01/19 03:52:08;;;;;;;30.58;13.40;;;;;;;-145.00;100.00;60578.66;5095238;28;20055;-53
2022/01/19 03:54:38;;;;;;;33.10;14.38;;;;;;;-145.00;100.00;60578.66;5094701;28;20072;-53
2022/01/19 03:57:06;;;;;;;26.63;13.45;;;;;;;-145.00;100.00;60578.66;5094633;28;20048;-53
2022/01/19 03:59:34;;;;;;;26.92;12.88;;;;;;;-145.00;100.00;60578.66;5095389;28;20056;-53
2022/01/19 04:02:05;;;;;;;31.65;14.07;;;;;;;-145.00;100.00;60578.66;5094746;28;20052;-53
2022/01/19 04:04:39;;;;;;;33.72;14.35;;;;;;;-145.00;100.00;60578.66;5095401;28;20114;-53
2022/01/19 04:07:27;;;;;;;29.58;13.73;;;;;;;-145.00;100.00;60578.66;5094435;28;20052;-56
2022/01/19 04:09:55;;;;;;;28.83;14.32;;;;;;;-145.00;100.00;60578.66;5094457;28;20059;-53
2022/01/19 04:12:41;;;;;;;30.50;13.27;;;;;;;-145.00;100.00;60578.66;5094958;28;20060;-53
2022/01/19 04:15:10;;;;;;;27.20;13.32;;;;;;;-145.00;100.00;60578.66;5094959;28;20087;-53
2022/01/19 04:17:46;;;;;;;30.60;13.75;;;;;;;-145.00;100.00;60578.66;5095237;28;20052;-53
2022/01/19 04:20:14;;;;;;;29.42;14.02;;;;;;;-145.00;100.00;60578.66;5093998;28;20063;-53
2022/01/19 04:22:43;;;;;;;30.00;15.13;;;;;;;-145.00;100.00;60578.66;5095283;28;20064;-53
2022/01/19 04:25:12;;;;;;;26.35;13.73;;;;;;;-145.00;100.00;60578.66;5093960;28;20427;-53
2022/01/19 04:27:43;;;;;;;30.23;14.30;;;;;;;-145.00;100.00;60578.66;5094187;28;20055;-53
2022/01/19 04:30:13;;;;;;;30.50;14.27;;;;;;;-145.00;100.00;60578.66;5094756;28;20052;-53
2022/01/19 04:32:49;;;;;;;32.17;15.90;;;;;;;-145.00;100.00;60578.66;5093765;28;20071;-53
2022/01/19 04:35:21;;;;;;;32.45;15.05;;;;;;;-145.00;100.00;60578.66;5095258;28;20058;-53
2022/01/19 04:38:30;;;;;;;28.55;14.90;;;;;;;-145.00;100.00;60578.66;5093795;28;20549;-53
2022/01/19 04:44:07;;;;;;;36.53;15.60;;;;;;;-145.00;100.00;60578.66;5094675;28;20070;-53
2022/01/19 05:03:29;;;;;;;29.42;15.23;;;;;;;-145.00;100.00;60578.66;5093839;28;20135;-53
2022/01/19 05:06:03;;;;;;;30.38;16.50;;;;;;;-145.00;100.00;60578.66;5093578;28;20052;-53
2022/01/19 05:08:57;;;;;;;32.42;14.98;;;;;;;-145.00;100.00;60578.66;5093542;28;20533;-53
2022/01/19 05:14:13;;;;;;;31.45;14.80;;;;;;;-145.00;100.00;60578.66;5051691;28;20068;-53
2022/01/19 05:16:42;;;;;;;26.60;14.05;;;;;;;-145.00;100.00;60578.66;5093690;28;20052;-53
2022/01/19 05:19:10;;;;;;;32.20;14.57;;;;;;;-145.00;100.00;60578.66;5093982;28;20071;-53
2022/01/19 05:21:39;;;;;;;29.90;14.90;;;;;;;-145.00;100.00;60578.66;5094253;28;20056;-53
2022/01/19 05:24:08;;;;;;;35.08;15.15;;;;;;;-145.00;100.00;60578.66;5093972;28;20086;-53
2022/01/19 05:26:37;;;;;;;28.95;14.18;;;;;;;-145.00;100.00;60578.66;5093988;28;20056;-53
2022/01/19 05:29:05;;;;;;;32.95;15.35;;;;;;;-145.00;100.00;60578.66;5094131;28;20056;-53
2022/01/19 05:31:34;;;;;;;34.72;14.50;;;;;;;-145.00;100.00;60578.66;5095562;28;20059;-53
2022/01/19 05:34:02;;;;;;;30.67;14.07;;;;;;;-145.00;100.00;60578.66;5097283;28;20056;-53
2022/01/19 05:36:30;;;;;;;28.38;13.70;;;;;;;-145.00;100.00;60578.66;5098166;28;20071;-53
2022/01/19 05:39:04;;;;;;;32.65;15.25;;;;;;;-145.00;100.00;60578.66;5097196;28;20056;-53
2022/01/19 05:41:33;;;;;;;25.75;13.27;;;;;;;-145.00;100.00;60578.66;5097097;28;20056;-53
2022/01/19 05:44:01;;;;;;;27.45;13.93;;;;;;;-145.00;100.00;60578.66;5098003;28;20059;-53
2022/01/19 05:46:29;;;;;;;33.13;14.05;;;;;;;-145.00;100.00;60578.66;5097693;28;20056;-53
2022/01/19 05:48:57;;;;;;;24.48;13.00;;;;;;;-145.00;100.00;60578.66;5097056;28;20056;-53
2022/01/19 05:51:26;;;;;;;29.15;13.13;;;;;;;-145.00;100.00;60578.66;5097131;28;20530;-53
2022/01/19 05:53:55;;;;;;;27.27;12.75;;;;;;;-145.00;100.00;60578.66;5098243;28;20092;-53
2022/01/19 05:56:24;;;;;;;32.33;13.65;;;;;;;-145.00;100.00;60578.66;5096632;28;20062;-53
2022/01/19 05:58:52;;;;;;;27.50;13.25;;;;;;;-145.00;100.00;60578.66;5096781;28;20059;-53
2022/01/19 06:01:21;;;;;;;23.50;13.15;;;;;;;-145.00;100.00;60578.66;5097069;28;20443;-53
2022/01/19 06:03:51;;;;;;;29.63;14.05;;;;;;;-145.00;100.00;60578.66;5096661;28;20060;-53
2022/01/19 06:06:19;;;;;;;27.75;13.13;;;;;;;-145.00;100.00;60578.66;5097173;28;20067;-53
2022/01/19 06:08:59;;;;;;;26.08;13.85;;;;;;;-145.00;100.00;60578.66;5096656;28;20056;-53
2022/01/19 06:11:29;;;;;;;25.02;12.88;;;;;;;-145.00;100.00;60578.66;5097220;28;20059;-53
2022/01/19 06:13:57;;;;;;;25.48;12.52;;;;;;;-145.00;100.00;60578.66;5096517;28;20066;-53
2022/01/19 06:16:25;;;;;;;31.40;12.70;;;;;;;-145.00;100.00;60578.66;5096545;28;20059;-53
2022/01/19 06:18:53;;;;;;;32.08;13.63;;;;;;;-145.00;100.00;60578.66;5096396;28;20056;-53
2022/01/19 06:21:21;;;;;;;25.17;13.07;;;;;;;-145.00;100.00;60578.66;5096377;28;20392;-53
2022/01/19 06:23:50;;;;;;;26.17;13.35;;;;;;;-145.00;100.00;60578.66;5097458;28;20060;-53
2022/01/19 06:26:18;;;;;;;27.42;12.35;;;;;;;-145.00;100.00;60578.66;5096041;28;20056;-53
2022/01/19 06:28:48;;;;;;;23.02;11.63;;;;;;;-145.00;100.00;60578.66;5096276;28;20525;-53
2022/01/19 06:31:16;;;;;;;29.75;13.40;;;;;;;-145.00;100.00;60578.66;5096426;28;20422;-53
2022/01/19 06:33:44;;;;;;;26.52;12.75;;;;;;;-145.00;100.00;60578.66;5096379;28;20060;-53
2022/01/19 06:36:12;;;;;;;23.73;12.07;;;;;;;-145.00;100.00;60578.66;5096072;28;20047;-53
2022/01/19 06:38:40;;;;;;;22.95;12.02;;;;;;;-145.00;100.00;60578.66;5095972;28;20055;-53
2022/01/19 06:41:09;;;;;;;26.40;12.30;;;;;;;-145.00;100.00;60578.66;5097160;28;20400;-53
2022/01/19 06:43:37;;;;;;;23.73;11.90;;;;;;;-145.00;100.00;60578.66;5095030;28;20059;-53
2022/01/19 06:46:07;;;;;;;25.05;12.27;;;;;;;-145.00;100.00;60578.66;5096244;28;20052;-53
2022/01/19 06:48:36;;;;;;;28.73;11.73;;;;;;;-145.00;100.00;60578.66;5096030;28;20059;-53
2022/01/19 06:51:04;;;;;;;20.55;11.95;;;;;;;-145.00;100.00;60578.66;5095639;28;20052;-53
2022/01/19 06:53:32;;;;;;;18.88;11.35;;;;;;;-145.00;100.00;60578.66;5095541;28;20070;-53
2022/01/19 06:56:00;;;;;;;30.75;11.95;;;;;;;-145.00;100.00;60578.66;5095481;28;20535;-53
2022/01/19 06:58:29;;;;;;;20.35;11.60;;;;;;;-145.00;100.00;60578.66;5095943;28;20070;-53
2022/01/19 07:00:57;;;;;;;26.02;11.10;;;;;;;-145.00;100.00;60578.66;5096104;28;20051;-53
2022/01/19 07:03:28;;;;;;;23.60;11.00;;;;;;;-145.00;100.00;60578.66;5095855;28;20570;-53
2022/01/19 07:05:56;;;;;;;23.20;11.48;;;;;;;-145.00;100.00;60578.66;5095809;28;20052;-53
2022/01/19 07:08:25;;;;;;;27.80;11.38;;;;;;;-145.00;100.00;60578.66;5095495;28;20064;-53
2022/01/19 07:10:53;;;;;;;24.83;11.45;;;;;;;-145.00;100.00;60578.66;5095780;28;20052;-53
2022/01/19 07:13:21;;;;;;;25.75;11.95;;;;;;;-145.00;100.00;60578.66;5095426;28;20063;-53
2022/01/19 07:15:49;;;;;;;25.60;11.05;;;;;;;-145.00;100.00;60578.66;5095632;28;20059;-53
2022/01/19 07:18:18;;;;;;;26.92;10.85;;;;;;;-145.00;100.00;60578.66;5095543;28;20055;-53
2022/01/19 07:20:47;;;;;;;18.83;10.98;;;;;;;-145.00;100.00;60578.66;5095037;28;20056;-53
2022/01/19 07:23:16;;;;;;;24.75;10.38;;;;;;;-145.00;100.00;60578.66;5095938;28;20052;-53
2022/01/19 07:25:44;;;;;;;29.80;11.07;;;;;;;-145.00;100.00;60578.66;5096203;28;20078;-53
2022/01/19 07:28:13;;;;;;;21.08;10.40;;;;;;;-145.00;100.00;60578.66;5095133;28;20097;-53
2022/01/19 07:30:42;;;;;;;24.52;10.45;;;;;;;-145.00;100.00;60578.66;5095766;28;20074;-53
2022/01/19 07:33:11;;;;;;;21.83;10.00;;;;;;;-145.00;100.00;60578.66;5095047;28;20138;-53
2022/01/19 07:35:40;;;;;;;23.67;11.60;;;;;;;-145.00;100.00;60578.66;5095414;28;20056;-53
2022/01/19 07:38:10;;;;;;;23.35;9.57;;;;;;;-145.00;100.00;60578.66;5096010;28;20470;-53
2022/01/19 07:40:38;;;;;;;25.58;9.88;;;;;;;-145.00;100.00;60578.66;5095179;28;20060;-53
2022/01/19 07:43:08;;;;;;;21.67;10.05;;;;;;;-145.00;100.00;60578.66;5095297;28;20519;-53
2022/01/19 07:45:36;;;;;;;24.58;10.32;;;;;;;-145.00;100.00;60578.66;5094750;28;20109;-53
2022/01/19 07:48:05;;;;;;;22.42;10.88;;;;;;;-145.00;100.00;60578.66;5094845;28;20052;-53
2022/01/19 07:50:34;;;;;;;23.38;10.77;;;;;;;-145.00;100.00;60578.66;5094961;28;20060;-53
2022/01/19 07:53:02;;;;;;;22.70;11.13;;;;;;;-145.00;100.00;60578.66;5095141;28;20052;-53
2022/01/19 07:55:32;;;;;;;21.05;10.80;;;;;;;-145.00;100.00;60578.66;5094141;28;20059;-53
2022/01/19 07:58:01;;;;;;;21.88;11.23;;;;;;;-145.00;100.00;60578.66;5095098;28;20063;-53
2022/01/19 08:00:30;;;;;;;30.42;12.10;;;;;;;-145.00;100.00;60578.66;5094549;28;20074;-53
2022/01/19 08:02:58;;;;;;;22.90;10.55;;;;;;;-145.00;100.00;60578.66;5095088;28;20064;-53
2022/01/19 08:05:26;;;;;;;21.25;10.07;;;;;;;-145.00;100.00;60578.66;5095041;28;20064;-53
2022/01/19 08:07:55;;;;;;;22.85;10.57;;;;;;;-145.00;100.00;60578.66;5095554;28;20055;-53
2022/01/19 08:10:23;;;;;;;24.20;10.77;;;;;;;-145.00;100.00;60578.66;5094374;28;20060;-53
2022/01/19 08:12:53;;;;;;;21.15;10.00;;;;;;;-145.00;100.00;60578.66;5094369;28;20529;-53
2022/01/19 08:15:21;;;;;;;21.92;10.18;;;;;;;-145.00;100.00;60578.66;5095011;28;20068;-53
2022/01/19 08:17:49;;;;;;;18.80;10.95;;;;;;;-145.00;100.00;60578.66;5094256;28;20052;-53
2022/01/19 08:20:18;;;;;;;21.90;10.35;;;;;;;-145.00;100.00;60578.66;5094297;28;20067;-53
2022/01/19 08:22:47;;;;;;;22.08;10.05;;;;;;;-145.00;100.00;60578.66;5094210;28;20056;-53
2022/01/19 08:25:16;;;;;;;21.80;10.63;;;;;;;-145.00;100.00;60578.66;5094460;28;20052;-53
2022/01/19 08:27:45;;;;;;;27.27;9.65;;;;;;;-145.00;100.00;60578.66;5094014;28;20062;-53
2022/01/19 08:30:16;;;;;;;19.92;9.40;;;;;;;-145.00;100.00;60578.66;5094187;28;20051;-53
2022/01/19 08:32:44;;;;;;;20.92;9.38;;;;;;;-145.00;100.00;60578.66;5094935;28;20056;-53
2022/01/19 08:35:13;;;;;;;20.42;9.68;;;;;;;-145.00;100.00;60578.66;5095345;28;20530;-53
2022/01/19 08:37:41;;;;;;;23.73;10.45;;;;;;;-145.00;100.00;60578.66;5094283;28;20063;-53
2022/01/19 08:40:12;;;;;;;25.05;10.07;;;;;;;-145.00;100.00;60578.66;5094400;28;20056;-53
2022/01/19 08:42:40;;;;;;;19.77;9.77;;;;;;;-145.00;100.00;60578.66;5093772;28;20060;-53
2022/01/19 08:45:10;;;;;;;15.75;9.50;;;;;;;-145.00;100.00;60578.66;5095038;28;20055;-53
2022/01/19 08:47:41;;;;;;;19.67;10.00;;;;;;;-145.00;100.00;60578.66;5093936;28;20064;-53
2022/01/19 08:50:11;;;;;;;20.10;9.18;;;;;;;-145.00;100.00;60578.66;5095116;28;20090;-53
2022/01/19 08:52:39;;;;;;;17.92;9.20;;;;;;;-145.00;100.00;60578.66;5095078;28;20067;-53
2022/01/19 08:55:08;;;;;;;19.48;9.15;;;;;;;-145.00;100.00;60578.66;5093642;28;20056;-53
2022/01/19 08:57:37;;;;;;;21.63;9.93;;;;;;;-145.00;100.00;60578.66;5093879;28;20056;-53
2022/01/19 09:00:08;;;;;;;18.67;9.68;;;;;;;-145.00;100.00;60578.66;5094302;28;20059;-53
2022/01/19 09:02:37;;;;;;;20.98;9.18;;;;;;;-145.00;100.00;60578.66;5093910;28;20056;-53
2022/01/19 09:05:08;;;;;;;25.33;9.55;;;;;;;-145.00;100.00;60578.66;5093342;28;20060;-53
2022/01/19 09:07:37;;;;;;;20.73;8.97;;;;;;;-145.00;100.00;60578.66;5098621;28;20062;-53
2022/01/19 09:10:08;;;;;;;22.63;10.27;;;;;;;-145.00;100.00;60578.66;5098065;28;20083;-53
2022/01/19 09:12:37;;;;;;;21.40;9.95;;;;;;;-145.00;100.00;60578.66;5097500;28;20067;-53
2022/01/19 09:15:06;;;;;;;19.70;9.55;;;;;;;-145.00;100.00;60578.66;5098299;28;20091;-53
2022/01/19 09:17:35;;;;;;;22.00;9.68;;;;;;;-145.00;100.00;60578.66;5098772;28;20059;-53
2022/01/19 09:20:07;;;;;;;20.50;9.07;;;;;;;-145.00;100.00;60578.66;5097890;28;20059;-53
2022/01/19 09:22:35;;;;;;;25.02;9.25;;;;;;;-145.00;100.00;60578.66;5097286;28;20052;-53
2022/01/19 09:25:05;;;;;;;18.55;8.57;;;;;;;-145.00;100.00;60578.66;5098793;28;20075;-53
2022/01/19 09:27:33;;;;;;;16.95;8.30;;;;;;;-145.00;100.00;60578.66;5097626;28;20056;-53
2022/01/19 09:30:02;;;;;;;21.13;8.73;;;;;;;-145.00;100.00;60578.66;5097453;28;20051;-53
2022/01/19 09:32:30;;;;;;;21.20;8.85;;;;;;;-145.00;100.00;60578.66;5097626;28;20515;-53
2022/01/19 09:35:06;;;;;;;16.65;8.85;;;;;;;-145.00;100.00;60578.66;5097295;28;20425;-53
2022/01/19 09:37:37;;;;;;;19.98;8.88;;;;;;;-145.00;100.00;60578.66;5096994;28;20060;-53
2022/01/19 09:40:25;;;;;;;15.98;7.68;;;;;;;-145.00;100.00;60578.66;5098072;28;20429;-53
2022/01/19 09:42:53;;;;;;;22.00;9.00;;;;;;;-145.00;100.00;60578.66;5097825;28;20054;-53
2022/01/19 09:45:22;;;;;;;15.50;7.55;;;;;;;-145.00;100.00;60578.66;5098310;28;20070;-53
2022/01/19 09:47:50;;;;;;;14.23;8.32;;;;;;;-145.00;100.00;60578.66;5097201;28;20058;-53
2022/01/19 09:50:18;;;;;;;19.70;9.40;;;;;;;-145.00;100.00;60578.66;5097330;28;20056;-53
2022/01/19 09:52:48;;;;;;;17.33;8.02;;;;;;;-145.00;100.00;60578.66;5097226;28;20056;-53
2022/01/19 09:55:16;;;;;;;16.58;8.23;;;;;;;-145.00;100.00;60578.66;5096638;28;20143;-53
2022/01/19 09:57:45;;;;;;;16.45;7.70;;;;;;;-145.00;100.00;60578.66;5096802;28;20144;-53
2022/01/19 10:00:16;;;;;;;18.67;8.38;;;;;;;-145.00;100.00;60578.66;5097700;28;20391;-53
2022/01/19 10:02:44;;;;;;;19.55;8.20;;;;;;;-145.00;100.00;60578.66;5097100;28;20093;-54
2022/01/19 10:05:13;;;;;;;14.65;7.60;;;;;;;-145.00;100.00;60578.66;5096916;28;20055;-53
2022/01/19 10:07:41;;;;;;;15.60;7.68;;;;;;;-145.00;100.00;60578.66;5096595;28;20606;-53
2022/01/19 10:10:11;;;;;;;16.50;7.38;;;;;;;-145.00;100.00;60578.66;5096860;28;20063;-53
2022/01/19 10:18:17;;;;;;;25.10;7.88;;;;;;;-145.00;100.00;60578.66;5096992;28;20056;-54
2022/01/19 10:20:47;;;;;;;18.33;7.15;;;;;;;-145.00;100.00;60578.66;5097111;28;20052;-54
2022/01/19 10:23:36;;;;;;;14.35;7.32;;;;;;;-145.00;100.00;60578.66;5096659;28;20068;-54
2022/01/19 10:26:08;;;;;;;18.58;8.35;;;;;;;-145.00;100.00;60578.66;5096102;28;20089;-54
2022/01/19 10:28:51;;;;;;;;;;;;;;;-145.00;100.00;60578.66;5097965;28;20067;-54
2022/01/19 10:31:19;;;;;;;;;;;;;;;-145.00;100.00;60578.66;5096756;28;19920;-54
2022/01/19 10:34:15;;;;;;;20.75;8.52;;;;;;;-145.00;100.00;60578.66;5096133;28;20363;-54
2022/01/19 10:36:45;;;;;;;18.65;7.93;;;;;;;-145.00;100.00;60578.66;5096702;28;20060;-54
2022/01/19 10:39:14;;;;;;;20.35;8.85;;;;;;;-145.00;100.00;60578.66;5096134;28;20051;-54
2022/01/19 10:44:38;;;;;;;13.18;7.85;;;;;;;8.79;78.27;102037.41;5112383;27;20368;-53
2022/01/19 10:47:58;;;;;;;13.90;6.93;;;;;;;8.72;78.51;102038.53;5111743;28;20048;-53
2022/01/19 10:50:28;;;;;;;18.08;8.75;;;;;;;8.65;78.52;102039.63;5112819;28;20082;-53
2022/01/19 10:53:04;;;;;;;14.73;7.50;;;;;;;8.54;79.63;102037.31;5111617;28;20518;-53
2022/01/19 10:55:34;;;;;;;13.70;6.78;;;;;;;8.44;79.72;102036.69;5112418;28;20056;-53
2022/01/19 10:58:03;;;;;;;16.65;7.10;;;;;;;8.37;80.03;102035.97;5112267;28;20056;-53
2022/01/19 11:00:34;;;;;;;13.93;7.38;;;;;;;8.35;80.96;102026.34;5111460;28;20058;-53
2022/01/19 11:03:15;;;;;;;14.65;7.75;;;;;;;8.41;81.17;102025.31;5111293;28;20529;-53
2022/01/19 11:05:46;;;;;;;11.75;6.63;;;;;;;8.40;81.68;102019.13;5111282;28;20095;-53
2022/01/19 11:08:16;;;;;;;12.77;6.93;;;;;;;8.39;82.45;102022.72;5112750;28;20388;-53
2022/01/19 11:10:48;;;;;;;15.25;6.53;;;;;;;8.38;82.73;102015.69;5112337;28;20078;-53
2022/01/19 11:13:25;;;;;;;16.58;7.25;;;;;;;8.29;82.63;102002.75;5111460;28;20063;-53
2022/01/19 11:15:55;;;;;;;15.60;6.50;;;;;;;8.41;83.56;102014.75;5111076;28;20560;-53
2022/01/19 11:18:25;;;;;;;13.45;6.63;;;;;;;8.38;83.82;102011.25;5111102;28;20060;-53
2022/01/19 11:20:54;;;;;;;13.90;6.28;;;;;;;8.30;84.92;102015.88;5111277;28;20088;-53
2022/01/19 11:23:31;;;;;;;14.52;6.55;;;;;;;8.30;85.39;102012.38;5111490;28;20055;-53
2022/01/19 11:26:02;;;;;;;13.02;7.20;;;;;;;7.97;86.02;101972.81;5110980;28;20521;-53
2022/01/19 11:28:34;;;;;;;11.27;6.47;;;;;;;8.25;86.15;102007.22;5111217;28;20059;-53
2022/01/19 11:31:09;;;;;;;12.95;6.72;;;;;;;8.16;86.89;102011.00;5110939;28;20062;-53
2022/01/19 11:33:42;;;;;;;16.02;9.43;;;;;;;8.11;88.46;102007.63;5111577;28;20063;-53
2022/01/19 11:36:23;;;;;;;16.20;7.88;;;;;;;8.09;89.21;101998.88;5111634;28;20051;-53
2022/01/19 11:38:53;;;;;;;14.90;8.38;;;;;;;7.97;89.77;101999.22;5111532;28;20431;-53
2022/01/19 11:41:41;;;;;;;14.65;7.00;;;;;;;7.91;89.92;101994.09;5110905;28;20056;-57
2022/01/19 11:44:12;;;;;;;14.57;8.13;;;;;;;7.79;91.35;101985.59;5111816;28;20071;-53
2022/01/19 11:46:43;;;;;;;14.80;7.43;;;;;;;7.64;93.92;101988.66;5111688;28;20056;-53
2022/01/19 11:49:13;;;;;;;18.58;7.65;;;;;;;7.34;96.53;101982.38;5111716;28;20052;-53
2022/01/19 11:51:44;;;;;;;16.25;8.20;;;;;;;7.16;99.72;101981.06;5110698;28;20051;-53
2022/01/19 11:54:16;;;;;;;16.88;8.25;;;;;;;7.00;100.00;101972.66;5107999;28;20055;-53
2022/01/19 11:57:09;;;;;;;16.30;8.15;;;;;;;6.91;100.00;101973.75;5097160;28;20062;-53
2022/01/19 12:00:05;;;;;;;17.25;9.40;;;;;;;6.96;100.00;101963.94;5097995;28;20052;-53
2022/01/19 12:02:37;;;;;;;17.58;9.55;;;;;;;7.01;100.00;101967.34;5098098;28;20387;-53
2022/01/19 12:05:28;;;;;;;22.63;9.25;;;;;;;6.93;100.00;101965.78;5096922;28;20048;-53
2022/01/19 12:07:59;;;;;;;16.15;7.25;;;;;;;6.87;100.00;101964.16;5097057;28;20419;-53
2022/01/19 12:10:47;;;;;;;17.73;10.35;;;;;;;6.73;100.00;101958.34;5096529;28;20056;-53
2022/01/19 12:16:48;;;;;;;23.50;11.23;;;;;;;6.80;100.00;101942.31;5075352;28;20060;-53
2022/01/19 12:19:23;;;;;;;25.37;11.80;;;;;;;6.76;100.00;101934.50;5097294;28;20056;-57
2022/01/19 12:21:55;;;;;;;24.48;12.07;;;;;;;6.88;100.00;101926.31;5096594;28;20056;-53
2022/01/19 12:24:36;;;;;;;28.30;11.27;;;;;;;6.94;100.00;101931.44;5096547;28;20091;-53
2022/01/19 12:27:24;;;;;;;25.58;12.95;;;;;;;6.93;100.00;101916.53;5096225;28;20052;-53
2022/01/19 12:30:01;;;;;;;19.80;11.50;;;;;;;7.00;100.00;101915.47;5096139;28;20052;-53
2022/01/19 12:32:50;;;;;;;25.98;12.40;;;;;;;7.01;100.00;101919.84;5096931;28;20064;-53